Time;durP1;ratioP1;P1;durP2;ratioP2;P2;SDS_P1;SDS_P2;PMS_P1;PMS_P2;Temp;Humidity;BMP_temperature;BMP_pressure;BME280_temperature;BME280_humidity;BME280_pressure;Samples;Min_cycle;Max_cycle;Signal;HPM_P1;HPM_P2
2023/06/11 00:01:14;;;;;;;1999.90;999.90;;;19.00;99.90;;;;;;5014056;28;20237;-73
2023/06/11 00:03:46;;;;;;;1999.90;999.90;;;19.00;99.90;;;;;;4997225;28;20066;-73
2023/06/11 00:06:17;;;;;;;1999.90;999.90;;;19.00;99.90;;;;;;5014200;28;20141;-73
2023/06/11 00:08:47;;;;;;;1999.90;999.90;;;19.00;99.90;;;;;;5014329;28;20544;-73
2023/06/11 00:11:13;;;;;;;1999.90;999.90;;;19.00;99.90;;;;;;5013063;28;20045;-73
2023/06/11 00:13:39;;;;;;;1999.90;999.90;;;19.00;99.90;;;;;;5014483;28;20081;-73
2023/06/11 00:16:05;;;;;;;1999.90;999.90;;;19.00;99.90;;;;;;5017982;28;20052;-73
2023/06/11 00:18:31;;;;;;;1999.90;999.90;;;19.00;99.90;;;;;;5034147;28;20056;-73
2023/06/11 00:20:58;;;;;;;1999.90;752.10;;;19.10;99.90;;;;;;5016971;28;20046;-73
2023/06/11 00:23:24;;;;;;;1999.90;999.90;;;19.00;99.90;;;;;;5014315;28;20085;-73
2023/06/11 00:25:52;;;;;;;1999.90;987.55;;;19.00;99.90;;;;;;4996007;28;20041;-73
2023/06/11 00:28:18;;;;;;;1999.90;999.90;;;19.00;99.90;;;;;;5013824;28;20149;-73
2023/06/11 00:30:44;;;;;;;1999.90;999.90;;;19.00;99.90;;;;;;5012816;28;20405;-73
2023/06/11 00:33:10;;;;;;;1999.90;999.90;;;18.90;99.90;;;;;;5013803;28;20041;-73
2023/06/11 00:35:36;;;;;;;1999.90;999.90;;;18.90;99.90;;;;;;5013835;28;20057;-73
2023/06/11 00:38:02;;;;;;;1999.90;999.90;;;18.90;99.90;;;;;;5013632;28;20057;-73
2023/06/11 00:40:28;;;;;;;1999.90;999.90;;;18.80;99.90;;;;;;4995648;28;20061;-73
2023/06/11 00:42:54;;;;;;;1999.90;999.90;;;18.80;99.90;;;;;;5014141;28;20049;-73
2023/06/11 00:45:22;;;;;;;1999.90;999.90;;;18.80;99.90;;;;;;5013527;28;20048;-73
2023/06/11 00:47:48;;;;;;;1999.90;999.90;;;18.70;99.90;;;;;;5013912;28;20049;-73
2023/06/11 00:50:15;;;;;;;1999.90;999.90;;;18.70;99.90;;;;;;4996054;28;20133;-77
2023/06/11 00:52:41;;;;;;;1999.90;999.90;;;18.70;99.90;;;;;;5013688;28;20050;-75
2023/06/11 00:55:08;;;;;;;1999.90;999.90;;;18.60;99.90;;;;;;5013398;28;20086;-73
2023/06/11 00:57:35;;;;;;;1999.90;999.90;;;18.60;99.90;;;;;;5012628;28;20497;-73
2023/06/11 01:00:03;;;;;;;1999.90;999.90;;;18.60;99.90;;;;;;5012490;28;20467;-73
2023/06/11 01:02:36;;;;;;;1999.90;999.90;;;18.60;99.90;;;;;;4996337;28;20097;-73
2023/06/11 01:05:04;;;;;;;1999.90;999.90;;;18.60;99.90;;;;;;5013147;28;20054;-73
2023/06/11 01:07:35;;;;;;;1999.90;999.90;;;18.50;99.90;;;;;;4995774;28;20438;-73
2023/06/11 01:10:02;;;;;;;1999.90;999.90;;;18.50;99.90;;;;;;5013082;28;20042;-74
2023/06/11 01:12:27;;;;;;;1999.90;999.90;;;18.40;99.90;;;;;;4995100;28;20053;-74
2023/06/11 01:14:53;;;;;;;1999.90;999.90;;;18.40;99.90;;;;;;5013640;28;20050;-75
2023/06/11 01:17:35;;;;;;;1999.90;999.90;;;18.40;99.90;;;;;;5026961;28;20045;-73
2023/06/11 01:20:12;;;;;;;1999.90;999.90;;;18.30;99.90;;;;;;5023562;28;20120;-73
2023/06/11 01:22:50;;;;;;;1999.90;999.90;;;18.30;99.90;;;;;;5013190;28;20049;-73
2023/06/11 01:25:17;;;;;;;1999.90;999.90;;;18.30;99.90;;;;;;5012465;28;20077;-75
2023/06/11 01:28:08;;;;;;;1999.90;999.90;;;18.30;99.90;;;;;;5012699;28;20042;-73
2023/06/11 01:30:41;;;;;;;1999.90;999.90;;;18.30;99.90;;;;;;5012893;28;20053;-73
2023/06/11 01:33:08;;;;;;;1999.90;999.90;;;18.30;99.90;;;;;;4995118;28;20053;-73
2023/06/11 01:35:35;;;;;;;1999.90;999.90;;;18.20;99.90;;;;;;4995619;28;20058;-73
2023/06/11 01:38:02;;;;;;;1999.90;999.90;;;18.20;99.90;;;;;;4995579;28;20048;-73
2023/06/11 01:40:28;;;;;;;1999.90;999.90;;;18.20;99.90;;;;;;5011862;28;20089;-73
2023/06/11 01:42:55;;;;;;;1999.90;961.55;;;18.20;99.90;;;;;;4995748;28;20144;-73
2023/06/11 01:45:22;;;;;;;1999.90;999.90;;;18.20;99.90;;;;;;4995008;28;20046;-77
2023/06/11 01:47:51;;;;;;;1999.90;999.90;;;18.20;99.90;;;;;;4995616;28;20052;-73
2023/06/11 01:50:17;;;;;;;1999.90;999.90;;;18.10;99.90;;;;;;5012326;28;20084;-73
2023/06/11 01:52:44;;;;;;;1999.90;999.90;;;18.10;99.90;;;;;;5012812;28;20434;-73
2023/06/11 01:55:10;;;;;;;1999.90;999.90;;;18.10;99.90;;;;;;5012402;28;20176;-73
2023/06/11 01:57:36;;;;;;;1999.90;999.90;;;18.10;99.90;;;;;;5011593;28;20042;-73
2023/06/11 02:00:05;;;;;;;1999.90;999.90;;;18.10;99.90;;;;;;5012716;28;20041;-73
2023/06/11 02:02:31;;;;;;;1999.90;999.90;;;18.10;99.90;;;;;;5012614;28;20053;-73
2023/06/11 02:04:57;;;;;;;1999.90;999.90;;;18.00;99.90;;;;;;5012536;28;20093;-73
2023/06/11 02:07:23;;;;;;;1999.90;999.90;;;18.00;99.90;;;;;;5012208;28;20409;-73
2023/06/11 02:09:49;;;;;;;1999.90;999.90;;;18.00;99.90;;;;;;5012666;28;20046;-73
2023/06/11 02:12:15;;;;;;;1999.90;999.90;;;18.00;99.90;;;;;;5013014;28;20042;-73
2023/06/11 02:14:41;;;;;;;1999.90;999.90;;;18.00;99.90;;;;;;5016825;28;20052;-74
2023/06/11 02:17:07;;;;;;;1999.90;999.90;;;18.00;99.90;;;;;;5028765;28;20056;-73
2023/06/11 02:19:32;;;;;;;1999.90;999.90;;;17.30;99.90;;;;;;5031100;28;20049;-74
2023/06/11 02:21:58;;;;;;;1999.90;999.90;;;17.90;99.90;;;;;;5016377;28;20438;-74
2023/06/11 02:24:23;;;;;;;1999.90;999.90;;;17.90;99.90;;;;;;5016208;28;20445;-73
2023/06/11 02:26:49;;;;;;;1999.90;999.90;;;17.90;99.90;;;;;;5015436;28;20479;-73
2023/06/11 02:29:15;;;;;;;1999.90;999.90;;;17.80;99.90;;;;;;5016108;28;20050;-73
2023/06/11 02:31:41;;;;;;;1999.90;999.90;;;17.80;99.90;;;;;;4998900;28;20104;-74
2023/06/11 02:34:06;;;;;;;1999.90;999.90;;;17.80;99.90;;;;;;5016386;28;20050;-73
2023/06/11 02:36:32;;;;;;;1999.90;999.90;;;17.70;99.90;;;;;;5015672;28;20434;-73
2023/06/11 02:38:58;;;;;;;1999.90;999.90;;;17.70;99.90;;;;;;5016233;28;20128;-73
2023/06/11 02:41:23;;;;;;;1999.90;999.90;;;17.70;99.90;;;;;;5014732;28;20046;-73
2023/06/11 02:43:49;;;;;;;1999.90;999.90;;;17.70;99.90;;;;;;5016217;28;20104;-73
2023/06/11 02:46:15;;;;;;;1999.90;999.90;;;17.70;99.90;;;;;;5015617;28;20061;-73
2023/06/11 02:48:40;;;;;;;1999.90;999.90;;;17.70;99.90;;;;;;4982607;28;20505;-73
2023/06/11 02:51:06;;;;;;;1999.90;999.90;;;17.60;99.90;;;;;;5015889;28;20500;-73
2023/06/11 02:53:32;;;;;;;1999.90;999.90;;;17.60;99.90;;;;;;5015767;28;20064;-73
2023/06/11 02:55:57;;;;;;;1999.90;999.90;;;17.60;99.90;;;;;;4997464;28;20482;-73
2023/06/11 02:58:23;;;;;;;1999.90;999.90;;;17.60;99.90;;;;;;4998200;28;20045;-73
2023/06/11 03:00:48;;;;;;;1999.90;999.90;;;17.50;99.90;;;;;;4998276;28;20152;-73
2023/06/11 03:03:14;;;;;;;1999.90;999.90;;;17.50;99.90;;;;;;4998300;28;20057;-74
2023/06/11 03:05:40;;;;;;;1999.90;999.90;;;17.50;99.90;;;;;;4997824;28;20054;-73
2023/06/11 03:08:06;;;;;;;1999.90;999.90;;;17.40;99.90;;;;;;5015776;28;20045;-73
2023/06/11 03:10:31;;;;;;;1999.90;999.90;;;17.40;99.90;;;;;;5014369;28;20425;-74
2023/06/11 03:12:57;;;;;;;1999.90;999.90;;;17.40;99.90;;;;;;5015701;28;20052;-75
2023/06/11 03:15:23;;;;;;;1999.90;999.90;;;17.40;99.90;;;;;;5014971;28;20084;-73
2023/06/11 03:17:48;;;;;;;1999.90;999.90;;;17.40;99.90;;;;;;5017549;28;20370;-73
2023/06/11 03:20:14;;;;;;;1999.90;999.90;;;17.30;99.90;;;;;;5006897;28;20056;-77
2023/06/11 03:22:40;;;;;;;1999.90;999.90;;;17.30;99.90;;;;;;5015172;28;20050;-73
2023/06/11 03:25:06;;;;;;;1999.90;999.90;;;17.40;99.90;;;;;;5015391;28;20048;-73
2023/06/11 03:27:32;;;;;;;1999.90;999.90;;;17.30;99.90;;;;;;5014141;28;20417;-73
2023/06/11 03:29:57;;;;;;;1999.90;999.90;;;17.30;99.90;;;;;;5015311;28;20042;-73
2023/06/11 03:32:23;;;;;;;1999.90;999.90;;;17.30;99.90;;;;;;5014882;28;20111;-73
2023/06/11 03:34:52;;;;;;;1999.90;999.90;;;17.30;99.90;;;;;;5015399;28;20438;-74
2023/06/11 03:37:18;;;;;;;1999.90;999.90;;;17.30;99.90;;;;;;5014835;28;20132;-74
2023/06/11 03:39:44;;;;;;;1999.90;999.90;;;17.30;99.90;;;;;;5015180;28;20049;-73
2023/06/11 03:42:10;;;;;;;1999.90;999.90;;;17.30;99.90;;;;;;5013771;28;20045;-73
2023/06/11 03:44:36;;;;;;;1999.90;999.90;;;17.20;99.90;;;;;;5014715;28;20081;-73
2023/06/11 03:47:02;;;;;;;1999.90;999.90;;;17.30;99.90;;;;;;5014769;28;20470;-73
2023/06/11 03:49:28;;;;;;;1999.90;999.90;;;17.30;99.90;;;;;;5014258;28;20064;-73
2023/06/11 03:51:55;;;;;;;1999.90;999.90;;;17.30;99.90;;;;;;5014701;28;20057;-73
2023/06/11 03:54:21;;;;;;;1999.90;999.90;;;17.30;99.90;;;;;;5014287;28;20045;-73
2023/06/11 03:56:46;;;;;;;1999.90;999.90;;;17.30;99.90;;;;;;5013750;28;20048;-72
2023/06/11 03:59:12;;;;;;;1999.90;999.90;;;17.30;99.90;;;;;;5014202;28;20129;-73
2023/06/11 04:01:38;;;;;;;1999.90;999.90;;;17.30;99.90;;;;;;5014117;28;20096;-72
2023/06/11 04:04:04;;;;;;;1999.90;999.90;;;17.30;99.90;;;;;;5014436;28;20061;-73
2023/06/11 04:06:38;;;;;;;1999.90;999.90;;;17.30;99.90;;;;;;4996446;28;20057;-73
2023/06/11 04:09:05;;;;;;;1999.90;999.90;;;17.30;99.90;;;;;;5014689;28;20137;-73
2023/06/11 04:11:30;;;;;;;1999.90;999.90;;;17.30;99.90;;;;;;5013174;28;20042;-73
2023/06/11 04:13:57;;;;;;;1999.90;999.90;;;17.30;99.90;;;;;;5014515;28;20057;-74
2023/06/11 04:16:23;;;;;;;1999.90;999.90;;;17.40;99.90;;;;;;5003189;28;20477;-73
2023/06/11 04:18:48;;;;;;;1999.90;999.90;;;17.30;99.90;;;;;;5034237;28;20048;-74
2023/06/11 04:21:14;;;;;;;1999.90;999.90;;;17.30;99.90;;;;;;5014817;28;20065;-72
2023/06/11 04:23:40;;;;;;;1999.90;999.90;;;17.40;99.90;;;;;;5014001;28;20053;-72
2023/06/11 04:26:10;;;;;;;1999.90;999.90;;;17.40;99.90;;;;;;4995738;28;20406;-72
2023/06/11 04:28:38;;;;;;;1999.90;999.90;;;17.40;99.90;;;;;;5013869;28;20045;-72
2023/06/11 04:31:06;;;;;;;1999.90;999.90;;;17.40;99.90;;;;;;5013954;28;20054;-74
2023/06/11 04:33:32;;;;;;;1999.90;999.90;;;17.40;99.90;;;;;;5013878;28;20117;-73
2023/06/11 04:36:07;;;;;;;1999.90;999.90;;;17.40;99.90;;;;;;5013183;28;20069;-73
2023/06/11 04:38:34;;;;;;;1999.90;999.90;;;17.40;99.90;;;;;;5013594;28;20494;-74
2023/06/11 04:41:00;;;;;;;1999.90;999.90;;;17.40;99.90;;;;;;5013089;28;20494;-74
2023/06/11 04:43:26;;;;;;;1999.90;480.67;;;17.50;99.90;;;;;;5013602;28;20081;-74
2023/06/11 04:45:56;;;;;;;1999.90;999.90;;;17.50;99.90;;;;;;5013707;28;20046;-74
2023/06/11 04:48:23;;;;;;;1999.90;999.90;;;17.50;99.90;;;;;;4996435;28;20478;-79
2023/06/11 04:50:50;;;;;;;1999.90;999.90;;;17.50;99.90;;;;;;5013661;28;20042;-73
2023/06/11 04:53:24;;;;;;;1999.90;999.90;;;17.60;99.90;;;;;;5013825;28;20049;-74
2023/06/11 04:55:57;;;;;;;1999.90;999.90;;;17.60;99.90;;;;;;4996521;28;20046;-73
2023/06/11 04:58:24;;;;;;;1999.90;999.90;;;17.70;99.90;;;;;;4996188;28;20054;-81
2023/06/11 05:00:50;;;;;;;1999.90;999.90;;;17.70;99.90;;;;;;4996070;28;20058;-74
2023/06/11 05:03:16;;;;;;;1999.90;999.90;;;17.70;99.90;;;;;;5013679;28;20375;-74
2023/06/11 05:05:52;;;;;;;1999.90;999.90;;;17.70;99.90;;;;;;5012988;28;20064;-74
2023/06/11 05:08:25;;;;;;;1999.90;999.90;;;17.70;99.90;;;;;;5013102;28;20088;-75
2023/06/11 05:10:57;;;;;;;1999.90;999.90;;;17.80;99.90;;;;;;4994892;28;20108;-74
2023/06/11 05:13:26;;;;;;;1999.90;999.90;;;17.90;99.90;;;;;;5012182;28;20058;-73
2023/06/11 05:15:56;;;;;;;1999.90;999.90;;;17.90;99.90;;;;;;4998317;28;20546;-74
2023/06/11 05:18:25;;;;;;;1999.90;999.90;;;17.90;99.90;;;;;;5033113;28;20371;-75
2023/06/11 05:20:51;;;;;;;1999.90;999.90;;;17.90;99.90;;;;;;4999573;28;20123;-74
2023/06/11 05:23:18;;;;;;;1999.90;999.90;;;17.90;99.90;;;;;;5013334;28;20430;-74
2023/06/11 05:25:47;;;;;;;1999.90;999.90;;;18.00;99.90;;;;;;5011889;28;20518;-74
2023/06/11 05:28:16;;;;;;;1999.90;999.90;;;18.00;99.90;;;;;;5013296;28;20336;-74
2023/06/11 05:30:45;;;;;;;1999.90;999.90;;;18.20;99.90;;;;;;5012263;28;20517;-74
2023/06/11 05:33:12;;;;;;;1999.90;999.90;;;18.30;99.90;;;;;;5013193;28;20144;-73
2023/06/11 05:35:38;;;;;;;1999.90;999.90;;;18.30;99.90;;;;;;5012460;28;20042;-73
2023/06/11 05:38:06;;;;;;;1999.90;999.90;;;18.40;99.90;;;;;;5012708;28;20050;-74
2023/06/11 05:40:32;;;;;;;;;;;18.50;99.90;;;;;;5012094;28;20124;-74
2023/06/11 05:42:57;;;;;;;1999.90;999.90;;;18.50;99.90;;;;;;5013050;28;19999;-73
2023/06/11 05:45:25;;;;;;;1999.90;999.90;;;18.60;99.90;;;;;;5012717;28;20085;-73
2023/06/11 05:47:51;;;;;;;1999.90;999.90;;;18.70;99.90;;;;;;4995262;28;20508;-73
2023/06/11 05:50:17;;;;;;;1999.90;801.72;;;18.70;99.90;;;;;;4995529;28;20196;-74
2023/06/11 05:52:44;;;;;;;1999.90;999.90;;;18.80;99.90;;;;;;5011320;28;20041;-74
2023/06/11 05:55:10;;;;;;;1999.90;999.90;;;18.80;99.90;;;;;;5012839;28;20050;-74
2023/06/11 05:57:36;;;;;;;1999.90;999.90;;;18.90;99.90;;;;;;5011465;28;20045;-74
2023/06/11 06:00:02;;;;;;;1999.90;999.90;;;19.00;99.90;;;;;;4995131;28;20529;-73
2023/06/11 06:02:27;;;;;;;1999.90;999.90;;;19.10;99.90;;;;;;5012235;28;20132;-79
2023/06/11 06:04:54;;;;;;;1999.90;999.90;;;19.20;99.90;;;;;;4995077;28;20145;-74
2023/06/11 06:07:20;;;;;;;1999.90;999.90;;;19.20;99.90;;;;;;5012592;28;20555;-74
2023/06/11 06:09:46;;;;;;;1999.90;999.90;;;19.30;99.90;;;;;;5012369;28;20049;-74
2023/06/11 06:12:11;;;;;;;1999.90;999.90;;;19.40;99.90;;;;;;5011667;28;20137;-74
2023/06/11 06:14:37;;;;;;;1999.90;999.90;;;19.40;99.90;;;;;;4994707;28;20053;-73
2023/06/11 06:17:03;;;;;;;1999.90;999.90;;;19.50;99.90;;;;;;5007221;28;20048;-74
2023/06/11 06:19:29;;;;;;;1999.90;999.90;;;19.60;99.90;;;;;;5032222;28;20044;-74
2023/06/11 06:21:54;;;;;;;1999.90;999.90;;;19.70;99.90;;;;;;5031984;28;20053;-74
2023/06/11 06:24:20;;;;;;;1999.90;999.90;;;19.80;99.90;;;;;;5014624;28;20349;-74
2023/06/11 06:26:47;;;;;;;1999.90;837.78;;;19.90;99.90;;;;;;5030856;28;20128;-74
2023/06/11 06:29:13;;;;;;;1999.90;999.90;;;20.00;99.90;;;;;;5032330;28;20045;-74
2023/06/11 06:31:41;;;;;;;1999.90;999.90;;;20.10;99.90;;;;;;5014265;28;20471;-74
2023/06/11 06:34:07;;;;;;;1999.90;999.90;;;20.20;99.90;;;;;;5032251;28;20052;-74
2023/06/11 06:36:33;;;;;;;1999.90;999.90;;;20.30;99.90;;;;;;5031486;28;20056;-74
2023/06/11 06:39:01;;;;;;;1999.90;999.90;;;20.40;99.90;;;;;;5031847;28;20401;-73
2023/06/11 06:41:27;;;;;;;1999.90;999.90;;;20.50;99.90;;;;;;5013744;28;20548;-76
2023/06/11 06:43:53;;;;;;;1999.90;999.90;;;20.60;99.90;;;;;;5014362;28;20396;-75
2023/06/11 06:46:18;;;;;;;1999.90;999.90;;;20.70;99.90;;;;;;5031909;28;20038;-74
2023/06/11 06:48:44;;;;;;;1999.90;999.90;;;20.80;99.90;;;;;;5031620;28;20085;-74
2023/06/11 06:51:10;;;;;;;1999.90;999.90;;;20.90;99.90;;;;;;5031893;28;20056;-74
2023/06/11 06:53:36;;;;;;;1999.90;999.90;;;20.90;99.90;;;;;;5031669;28;20068;-73
2023/06/11 06:56:05;;;;;;;1999.90;999.90;;;21.00;99.90;;;;;;5030989;28;20045;-73
2023/06/11 06:58:32;;;;;;;1999.90;999.90;;;21.10;99.90;;;;;;5033864;28;20084;-74
2023/06/11 07:00:58;;;;;;;1999.90;999.90;;;21.20;99.90;;;;;;5035025;28;20061;-74
2023/06/11 07:03:24;;;;;;;1999.90;999.90;;;21.30;99.90;;;;;;5035429;28;20053;-74
2023/06/11 07:05:49;;;;;;;1999.90;999.90;;;21.40;99.90;;;;;;5034988;28;20061;-74
2023/06/11 07:08:15;;;;;;;1999.90;999.90;;;21.50;99.90;;;;;;5035557;28;20124;-74
2023/06/11 07:10:47;;;;;;;1999.90;999.90;;;21.70;99.90;;;;;;5034079;28;20266;-74
2023/06/11 07:13:13;;;;;;;1999.90;999.90;;;21.80;99.90;;;;;;5035487;28;20072;-74
2023/06/11 07:15:38;;;;;;;1999.90;999.90;;;22.00;99.90;;;;;;5034684;28;20478;-74
2023/06/11 07:18:04;;;;;;;1999.90;999.90;;;22.20;99.90;;;;;;5017799;28;20413;-72
2023/06/11 07:20:30;;;;;;;1999.90;999.90;;;22.40;99.90;;;;;;5034845;28;20057;-76
2023/06/11 07:22:59;;;;;;;1999.90;999.90;;;22.60;99.90;;;;;;5034987;28;20045;-74
2023/06/11 07:25:28;;;;;;;1999.90;999.90;;;22.90;99.90;;;;;;5034250;28;20049;-77
2023/06/11 07:27:54;;;;;;;1999.90;999.90;;;23.10;99.90;;;;;;5034725;28;20064;-76
2023/06/11 07:30:20;;;;;;;1999.90;999.90;;;23.30;99.90;;;;;;5017372;28;20193;-75
2023/06/11 07:32:46;;;;;;;1999.90;999.90;;;23.60;99.90;;;;;;5017049;28;20046;-75
2023/06/11 07:35:12;;;;;;;1999.90;999.90;;;23.70;99.90;;;;;;5017581;28;20041;-75
2023/06/11 07:37:37;;;;;;;1999.90;999.90;;;23.80;99.90;;;;;;5034535;28;20049;-73
2023/06/11 07:40:05;;;;;;;1999.90;999.90;;;24.20;99.90;;;;;;5034902;28;20084;-72
2023/06/11 07:42:31;;;;;;;1999.90;999.90;;;24.10;99.90;;;;;;5033962;28;20060;-73
2023/06/11 07:44:56;;;;;;;1999.90;999.90;;;24.30;99.90;;;;;;5034466;28;20041;-73
2023/06/11 07:47:22;;;;;;;1999.90;999.90;;;24.40;99.90;;;;;;5034679;28;20038;-72
2023/06/11 07:49:48;;;;;;;1999.90;999.90;;;24.40;99.90;;;;;;5034475;28;20038;-72
2023/06/11 07:52:14;;;;;;;1999.90;999.90;;;24.50;99.90;;;;;;5016895;28;20473;-73
2023/06/11 07:54:41;;;;;;;1999.90;999.90;;;24.50;99.90;;;;;;5034556;28;20493;-80
2023/06/11 07:57:08;;;;;;;1999.90;999.90;;;24.70;99.90;;;;;;5033745;28;20049;-74
2023/06/11 07:59:36;;;;;;;1999.90;999.90;;;24.80;99.90;;;;;;5000951;28;20053;-73
2023/06/11 08:02:03;;;;;;;1999.90;999.90;;;24.70;99.90;;;;;;5033897;28;20089;-73
2023/06/11 08:04:28;;;;;;;1999.90;999.90;;;24.80;99.90;;;;;;5033089;28;20512;-73
2023/06/11 08:06:54;;;;;;;1999.90;999.90;;;24.80;99.90;;;;;;5016041;28;20057;-73
2023/06/11 08:09:20;;;;;;;1999.90;999.90;;;25.00;99.90;;;;;;5015580;28;20494;-73
2023/06/11 08:11:46;;;;;;;1999.90;999.90;;;25.30;99.90;;;;;;5015150;28;20052;-73
2023/06/11 08:14:11;;;;;;;1999.90;999.90;;;25.40;99.90;;;;;;5034187;28;20060;-74
2023/06/11 08:16:37;;;;;;;1999.90;999.90;;;25.50;99.90;;;;;;5033888;28;20091;-74
2023/06/11 08:19:03;;;;;;;1999.90;999.90;;;25.70;99.90;;;;;;5033630;28;20049;-73
2023/06/11 08:21:28;;;;;;;1999.90;999.90;;;25.90;99.90;;;;;;5033988;28;20049;-73
2023/06/11 08:23:54;;;;;;;1999.90;999.90;;;26.10;99.90;;;;;;5034022;28;20049;-73
2023/06/11 08:26:20;;;;;;;1999.90;999.90;;;26.20;99.90;;;;;;5015580;28;20045;-73
2023/06/11 08:28:46;;;;;;;1999.90;995.60;;;26.30;99.90;;;;;;5033698;28;20052;-74
2023/06/11 08:31:12;;;;;;;1999.90;999.90;;;26.40;99.90;;;;;;5033742;28;20474;-73
2023/06/11 08:33:38;;;;;;;1999.90;999.90;;;26.60;99.90;;;;;;5016442;28;20053;-73
2023/06/11 08:36:05;;;;;;;1999.90;999.90;;;26.80;99.90;;;;;;5033592;28;20045;-73
2023/06/11 08:38:30;;;;;;;1999.90;999.90;;;26.90;99.90;;;;;;5016245;28;20041;-73
2023/06/11 08:40:56;;;;;;;1999.90;999.90;;;26.90;99.90;;;;;;5032376;28;20052;-73
2023/06/11 08:43:22;;;;;;;1999.90;999.90;;;27.10;99.90;;;;;;5016285;28;20043;-73
2023/06/11 08:45:48;;;;;;;1999.90;999.90;;;27.30;99.90;;;;;;5033093;28;20049;-74
2023/06/11 08:48:18;;;;;;;1999.90;999.90;;;27.40;99.90;;;;;;5032537;28;20521;-74
2023/06/11 08:50:46;;;;;;;1999.90;999.90;;;27.40;99.90;;;;;;5033527;28;20057;-73
2023/06/11 08:53:12;;;;;;;1999.90;999.90;;;27.50;99.90;;;;;;5033280;28;20500;-74
2023/06/11 08:55:38;;;;;;;1999.90;999.90;;;27.70;99.90;;;;;;5015149;28;20053;-73
2023/06/11 08:58:04;;;;;;;1999.90;999.90;;;27.80;99.90;;;;;;5032975;28;20300;-74
2023/06/11 09:00:30;;;;;;;1999.90;999.90;;;27.90;99.90;;;;;;5033187;28;20091;-74
2023/06/11 09:02:56;;;;;;;1999.90;999.90;;;28.10;99.90;;;;;;5032989;28;20508;-74
2023/06/11 09:05:22;;;;;;;1999.90;999.90;;;28.00;99.90;;;;;;5033140;28;20200;-74
2023/06/11 09:07:52;;;;;;;1999.90;999.90;;;28.20;99.90;;;;;;5033270;28;20179;-83
2023/06/11 09:10:19;;;;;;;1999.90;999.90;;;28.20;99.90;;;;;;5032820;28;20045;-76
2023/06/11 09:12:45;;;;;;;1999.90;999.90;;;28.20;99.90;;;;;;5032780;28;20064;-74
2023/06/11 09:15:12;;;;;;;1999.90;999.90;;;28.50;99.90;;;;;;5015261;28;20131;-74
2023/06/11 09:17:43;;;;;;;1999.90;999.90;;;28.60;99.90;;;;;;5032894;28;20045;-75
2023/06/11 09:20:11;;;;;;;1999.90;999.90;;;28.70;99.90;;;;;;4998277;28;20087;-74
2023/06/11 09:22:38;;;;;;;1999.90;999.90;;;28.80;99.90;;;;;;5032723;28;20056;-74
2023/06/11 09:25:09;;;;;;;;;;;28.90;99.90;;;;;;4999356;28;20630;-75
2023/06/11 09:27:39;;;;;;;1999.90;999.90;;;28.90;99.90;;;;;;5032128;28;19927;-74
2023/06/11 09:30:18;;;;;;;1999.90;999.90;;;29.10;99.90;;;;;;5032556;28;20123;-74
2023/06/11 09:32:46;;;;;;;1999.90;999.90;;;29.30;99.90;;;;;;5032814;28;20045;-75
2023/06/11 09:35:13;;;;;;;1999.90;999.90;;;29.50;99.90;;;;;;5032135;28;20393;-74
2023/06/11 09:37:39;;;;;;;;;;;29.80;99.90;;;;;;5015703;28;20049;-75
2023/06/11 09:40:08;;;;;;;1999.90;999.90;;;30.10;99.90;;;;;;5014724;28;19921;-74
2023/06/11 09:42:34;;;;;;;1999.90;999.90;;;30.10;99.90;;;;;;5013672;28;20057;-75
2023/06/11 09:45:01;;;;;;;1999.90;999.90;;;30.00;99.90;;;;;;5032327;28;20504;-75
2023/06/11 09:47:35;;;;;;;1999.90;999.90;;;30.10;99.90;;;;;;5032700;28;20045;-74
2023/06/11 09:50:02;;;;;;;1999.90;999.90;;;30.10;99.90;;;;;;5032694;28;20394;-76
2023/06/11 09:52:28;;;;;;;1999.90;999.90;;;30.40;99.90;;;;;;5032606;28;20393;-76
2023/06/11 09:54:54;;;;;;;1999.90;999.90;;;30.40;99.90;;;;;;5015403;28;20041;-82
2023/06/11 09:57:21;;;;;;;1999.90;999.90;;;30.50;99.90;;;;;;5015240;28;20103;-74
2023/06/11 09:59:48;;;;;;;1999.90;999.90;;;30.70;99.90;;;;;;5033554;28;20440;-74
2023/06/11 10:02:14;;;;;;;1999.90;999.90;;;31.10;99.90;;;;;;5032609;28;20042;-74
2023/06/11 10:04:40;;;;;;;1999.90;999.90;;;31.40;99.90;;;;;;5032619;28;20061;-74
2023/06/11 10:07:07;;;;;;;1999.90;999.90;;;31.70;99.90;;;;;;5014627;28;20163;-75
2023/06/11 10:09:34;;;;;;;1999.90;999.90;;;31.80;99.90;;;;;;5015048;28;20053;-74
2023/06/11 10:12:00;;;;;;;1999.90;999.90;;;32.10;99.90;;;;;;5031019;28;20474;-74
2023/06/11 10:14:26;;;;;;;1999.90;999.90;;;32.20;99.90;;;;;;5032491;28;20049;-74
2023/06/11 10:16:54;;;;;;;1999.90;999.90;;;32.60;99.90;;;;;;5014388;28;20045;-74
2023/06/11 10:19:21;;;;;;;1999.90;999.90;;;32.70;99.90;;;;;;5028454;28;20478;-74
2023/06/11 10:21:51;;;;;;;1999.90;999.90;;;33.00;99.90;;;;;;5012370;28;20104;-75
2023/06/11 10:24:22;;;;;;;1999.90;999.90;;;33.30;99.90;;;;;;5012188;28;20100;-74
2023/06/11 10:27:13;;;;;;;1999.90;999.90;;;33.70;99.90;;;;;;5011573;28;20085;-74
2023/06/11 10:29:46;;;;;;;1999.90;999.90;;;34.00;99.90;;;;;;4995333;28;20048;-75
2023/06/11 10:32:21;;;;;;;1999.90;999.90;;;34.40;99.90;;;;;;5011988;28;20096;-75
2023/06/11 10:34:55;;;;;;;1999.90;999.90;;;34.80;99.90;;;;;;5016513;28;20121;-74
2023/06/11 10:37:35;;;;;;;1999.90;999.90;;;34.50;99.90;;;;;;4998560;28;20104;-74
2023/06/11 10:40:01;;;;;;;1999.90;999.90;;;34.40;99.90;;;;;;5015881;28;20088;-74
2023/06/11 10:42:33;;;;;;;1999.90;999.90;;;34.70;99.90;;;;;;5014882;28;20371;-75
2023/06/11 10:45:00;;;;;;;1999.90;999.90;;;34.70;99.90;;;;;;5025630;28;20045;-80
2023/06/11 10:47:27;;;;;;;1999.90;999.90;;;35.00;99.90;;;;;;5030281;28;20041;-74
2023/06/11 10:50:07;;;;;;;1999.90;999.90;;;35.30;99.90;;;;;;5029611;28;20148;-77
2023/06/11 10:52:56;;;;;;;1999.90;999.90;;;35.40;99.90;;;;;;5015910;28;20053;-74
2023/06/11 10:55:26;;;;;;;1999.90;999.90;;;35.50;99.90;;;;;;5015870;28;20144;-76
2023/06/11 10:57:55;;;;;;;1999.90;999.90;;;35.90;99.90;;;;;;5016071;28;20080;-74
2023/06/11 11:00:22;;;;;;;1999.90;999.90;;;36.60;99.90;;;;;;5030323;28;20043;-78
2023/06/11 11:02:48;;;;;;;1999.90;999.90;;;37.00;99.90;;;;;;5027094;28;20038;-75
2023/06/11 11:05:14;;;;;;;1999.90;999.90;;;37.10;99.90;;;;;;5014637;28;20079;-75
2023/06/11 11:07:44;;;;;;;1999.90;999.90;;;37.10;99.90;;;;;;5006110;28;20445;-76
2023/06/11 11:10:11;;;;;;;1999.90;999.90;;;37.40;99.90;;;;;;5015630;28;20056;-74
2023/06/11 11:12:41;;;;;;;1833.07;563.33;;;37.40;99.90;;;;;;5030369;28;20057;-75
2023/06/11 11:15:10;;;;;;;1988.32;551.53;;;37.50;99.90;;;;;;5032591;28;20046;-75
2023/06/11 11:17:37;;;;;;;1999.90;999.90;;;37.40;99.90;;;;;;5034327;28;20204;-73
2023/06/11 11:20:10;;;;;;;1999.90;925.55;;;37.90;99.90;;;;;;5013001;28;20045;-77
2023/06/11 11:22:37;;;;;;;1999.90;999.90;;;37.70;99.90;;;;;;5034294;28;20131;-74
2023/06/11 11:25:04;;;;;;;1999.90;999.90;;;37.70;99.90;;;;;;5027438;28;20050;-75
2023/06/11 11:27:31;;;;;;;1999.90;999.90;;;37.70;99.90;;;;;;5031939;28;20045;-81
2023/06/11 11:29:59;;;;;;;1999.90;999.90;;;37.70;99.90;;;;;;5028877;28;20041;-74
2023/06/11 11:32:32;;;;;;;1999.90;999.90;;;37.70;99.90;;;;;;5017863;28;20587;-74
2023/06/11 11:34:59;;;;;;;1868.95;823.88;;;38.00;99.90;;;;;;5009549;28;20441;-74
2023/06/11 11:37:28;;;;;;;1999.90;936.33;;;38.50;99.90;;;;;;5029014;28;20045;-73
2023/06/11 11:39:54;;;;;;;1999.90;632.45;;;38.50;99.90;;;;;;5032710;28;20049;-75
2023/06/11 11:42:22;;;;;;;1999.90;992.40;;;38.30;99.90;;;;;;5022928;28;20099;-74
2023/06/11 11:44:53;;;;;;;1999.90;941.13;;;38.00;99.90;;;;;;5030770;28;20045;-74
2023/06/11 11:47:21;;;;;;;1999.90;999.90;;;37.40;99.90;;;;;;5031844;28;20088;-78
2023/06/11 11:49:54;;;;;;;1999.90;885.13;;;37.30;99.90;;;;;;5029020;28;20083;-75
2023/06/11 11:52:22;;;;;;;1999.90;999.90;;;37.80;99.90;;;;;;5023664;28;20042;-74
2023/06/11 11:54:48;;;;;;;1999.90;997.67;;;38.20;99.90;;;;;;5032118;28;20057;-73
2023/06/11 11:57:18;;;;;;;1944.70;626.67;;;38.20;99.90;;;;;;5032685;28;20075;-74
2023/06/11 11:59:44;;;;;;;1989.40;852.13;;;37.90;99.90;;;;;;5028364;28;20316;-78
2023/06/11 12:02:09;;;;;;;1999.90;999.90;;;38.10;99.90;;;;;;5025713;28;20405;-75